sensor_id;sensor_type;location;lat;lon;timestamp;temperature;humidity
12504;DHT22;6316;48.118;-1.690;2023-09-12T00:01:51;19.70;99.90
12504;DHT22;6316;48.118;-1.690;2023-09-12T00:04:16;19.70;99.90
12504;DHT22;6316;48.118;-1.690;2023-09-12T00:06:42;19.70;99.90
12504;DHT22;6316;48.118;-1.690;2023-09-12T00:09:08;19.70;99.90
12504;DHT22;6316;48.118;-1.690;2023-09-12T00:11:34;19.70;99.90
12504;DHT22;6316;48.118;-1.690;2023-09-12T00:14:00;19.60;99.90
12504;DHT22;6316;48.118;-1.690;2023-09-12T00:16:25;19.60;99.90
12504;DHT22;6316;48.118;-1.690;2023-09-12T00:18:51;19.60;99.90
12504;DHT22;6316;48.118;-1.690;2023-09-12T00:21:16;19.60;99.90
12504;DHT22;6316;48.118;-1.690;2023-09-12T00:23:42;19.60;99.90
12504;DHT22;6316;48.118;-1.690;2023-09-12T00:26:08;19.60;99.90
12504;DHT22;6316;48.118;-1.690;2023-09-12T00:28:33;19.60;99.90
12504;DHT22;6316;48.118;-1.690;2023-09-12T00:30:59;19.60;99.90
12504;DHT22;6316;48.118;-1.690;2023-09-12T00:33:25;19.60;99.90
12504;DHT22;6316;48.118;-1.690;2023-09-12T00:35:50;19.60;99.90
12504;DHT22;6316;48.118;-1.690;2023-09-12T00:38:16;19.60;99.90
12504;DHT22;6316;48.118;-1.690;2023-09-12T00:40:42;19.60;99.90
12504;DHT22;6316;48.118;-1.690;2023-09-12T00:43:07;19.60;99.90
12504;DHT22;6316;48.118;-1.690;2023-09-12T00:45:33;19.60;99.90
12504;DHT22;6316;48.118;-1.690;2023-09-12T00:48:01;19.60;99.90
12504;DHT22;6316;48.118;-1.690;2023-09-12T00:50:28;19.60;99.90
12504;DHT22;6316;48.118;-1.690;2023-09-12T00:52:55;19.60;99.90
12504;DHT22;6316;48.118;-1.690;2023-09-12T00:55:21;19.50;99.90
12504;DHT22;6316;48.118;-1.690;2023-09-12T00:57:47;19.50;99.90
12504;DHT22;6316;48.118;-1.690;2023-09-12T01:00:14;19.50;99.90
12504;DHT22;6316;48.118;-1.690;2023-09-12T01:02:41;19.50;99.90
12504;DHT22;6316;48.118;-1.690;2023-09-12T01:05:08;19.50;99.90
12504;DHT22;6316;48.118;-1.690;2023-09-12T01:07:35;19.50;99.90
12504;DHT22;6316;48.118;-1.690;2023-09-12T01:10:01;19.50;99.90
12504;DHT22;6316;48.118;-1.690;2023-09-12T01:12:29;19.50;99.90
12504;DHT22;6316;48.118;-1.690;2023-09-12T01:14:55;19.50;99.90
12504;DHT22;6316;48.118;-1.690;2023-09-12T01:17:21;19.50;99.90
12504;DHT22;6316;48.118;-1.690;2023-09-12T01:19:47;19.50;99.90
12504;DHT22;6316;48.118;-1.690;2023-09-12T01:27:48;19.40;99.90
12504;DHT22;6316;48.118;-1.690;2023-09-12T01:30:21;19.40;99.90
12504;DHT22;6316;48.118;-1.690;2023-09-12T01:32:48;19.40;99.90
12504;DHT22;6316;48.118;-1.690;2023-09-12T01:35:14;19.40;99.90
12504;DHT22;6316;48.118;-1.690;2023-09-12T01:37:40;19.40;99.90
12504;DHT22;6316;48.118;-1.690;2023-09-12T01:40:07;19.40;99.90
12504;DHT22;6316;48.118;-1.690;2023-09-12T01:42:46;19.40;99.90
12504;DHT22;6316;48.118;-1.690;2023-09-12T01:45:17;19.30;99.90
12504;DHT22;6316;48.118;-1.690;2023-09-12T01:47:45;19.30;99.90
12504;DHT22;6316;48.118;-1.690;2023-09-12T01:50:12;19.30;99.90
12504;DHT22;6316;48.118;-1.690;2023-09-12T01:52:39;19.30;99.90
12504;DHT22;6316;48.118;-1.690;2023-09-12T01:55:06;19.30;99.90
12504;DHT22;6316;48.118;-1.690;2023-09-12T01:57:35;19.30;99.90
12504;DHT22;6316;48.118;-1.690;2023-09-12T02:00:01;19.20;99.90
12504;DHT22;6316;48.118;-1.690;2023-09-12T02:02:27;19.20;99.90
12504;DHT22;6316;48.118;-1.690;2023-09-12T02:05:11;19.20;99.90
12504;DHT22;6316;48.118;-1.690;2023-09-12T02:07:40;19.20;99.90
12504;DHT22;6316;48.118;-1.690;2023-09-12T02:10:07;19.20;99.90
12504;DHT22;6316;48.118;-1.690;2023-09-12T02:12:33;19.20;99.90
12504;DHT22;6316;48.118;-1.690;2023-09-12T02:14:58;19.20;99.90
12504;DHT22;6316;48.118;-1.690;2023-09-12T02:17:24;19.20;99.90
12504;DHT22;6316;48.118;-1.690;2023-09-12T02:19:50;19.20;99.90
12504;DHT22;6316;48.118;-1.690;2023-09-12T02:22:15;19.20;99.90
12504;DHT22;6316;48.118;-1.690;2023-09-12T02:24:41;19.20;99.90
12504;DHT22;6316;48.118;-1.690;2023-09-12T02:27:06;19.20;99.90
12504;DHT22;6316;48.118;-1.690;2023-09-12T02:29:32;19.20;99.90
12504;DHT22;6316;48.118;-1.690;2023-09-12T02:31:58;19.20;99.90
12504;DHT22;6316;48.118;-1.690;2023-09-12T02:34:24;19.20;99.90
12504;DHT22;6316;48.118;-1.690;2023-09-12T02:36:49;19.20;99.90
12504;DHT22;6316;48.118;-1.690;2023-09-12T02:39:15;19.20;99.90
12504;DHT22;6316;48.118;-1.690;2023-09-12T02:41:41;19.20;99.90
12504;DHT22;6316;48.118;-1.690;2023-09-12T02:44:06;19.30;99.90
12504;DHT22;6316;48.118;-1.690;2023-09-12T02:46:32;19.30;99.90
12504;DHT22;6316;48.118;-1.690;2023-09-12T02:48:58;19.30;99.90
12504;DHT22;6316;48.118;-1.690;2023-09-12T02:51:25;19.30;99.90
12504;DHT22;6316;48.118;-1.690;2023-09-12T02:53:51;19.30;99.90
12504;DHT22;6316;48.118;-1.690;2023-09-12T02:56:17;19.30;99.90
12504;DHT22;6316;48.118;-1.690;2023-09-12T02:58:46;19.30;99.90
12504;DHT22;6316;48.118;-1.690;2023-09-12T03:01:18;19.30;99.90
12504;DHT22;6316;48.118;-1.690;2023-09-12T03:03:46;19.30;99.90
12504;DHT22;6316;48.118;-1.690;2023-09-12T03:06:12;19.30;99.90
12504;DHT22;6316;48.118;-1.690;2023-09-12T03:08:41;19.30;99.90
12504;DHT22;6316;48.118;-1.690;2023-09-12T03:11:07;19.30;99.90
12504;DHT22;6316;48.118;-1.690;2023-09-12T03:13:33;19.30;99.90
12504;DHT22;6316;48.118;-1.690;2023-09-12T03:16:00;19.30;99.90
12504;DHT22;6316;48.118;-1.690;2023-09-12T03:18:25;19.30;99.90
12504;DHT22;6316;48.118;-1.690;2023-09-12T03:20:51;19.30;99.90
12504;DHT22;6316;48.118;-1.690;2023-09-12T03:23:16;19.30;99.90
12504;DHT22;6316;48.118;-1.690;2023-09-12T03:25:42;19.30;99.90
12504;DHT22;6316;48.118;-1.690;2023-09-12T03:28:08;19.30;99.90
12504;DHT22;6316;48.118;-1.690;2023-09-12T03:30:35;19.30;99.90
12504;DHT22;6316;48.118;-1.690;2023-09-12T03:33:02;19.30;99.90
12504;DHT22;6316;48.118;-1.690;2023-09-12T03:35:31;19.30;99.90
12504;DHT22;6316;48.118;-1.690;2023-09-12T03:37:57;19.30;99.90
12504;DHT22;6316;48.118;-1.690;2023-09-12T03:40:23;19.30;99.90
12504;DHT22;6316;48.118;-1.690;2023-09-12T03:42:49;19.30;99.90
12504;DHT22;6316;48.118;-1.690;2023-09-12T03:45:14;19.30;99.90
12504;DHT22;6316;48.118;-1.690;2023-09-12T03:47:40;19.30;99.90
12504;DHT22;6316;48.118;-1.690;2023-09-12T03:50:06;19.30;99.90
12504;DHT22;6316;48.118;-1.690;2023-09-12T03:52:32;19.30;99.90
12504;DHT22;6316;48.118;-1.690;2023-09-12T03:54:57;19.30;99.90
12504;DHT22;6316;48.118;-1.690;2023-09-12T03:57:23;19.30;99.90
12504;DHT22;6316;48.118;-1.690;2023-09-12T03:59:50;19.40;99.90
12504;DHT22;6316;48.118;-1.690;2023-09-12T04:02:16;19.30;99.90
12504;DHT22;6316;48.118;-1.690;2023-09-12T04:04:42;19.40;99.90
12504;DHT22;6316;48.118;-1.690;2023-09-12T04:07:08;19.30;99.90
12504;DHT22;6316;48.118;-1.690;2023-09-12T04:09:33;19.40;99.90
12504;DHT22;6316;48.118;-1.690;2023-09-12T04:11:59;19.30;99.90
12504;DHT22;6316;48.118;-1.690;2023-09-12T04:14:25;19.40;99.90
12504;DHT22;6316;48.118;-1.690;2023-09-12T04:16:50;19.40;99.90
12504;DHT22;6316;48.118;-1.690;2023-09-12T04:19:16;19.30;99.90
12504;DHT22;6316;48.118;-1.690;2023-09-12T04:21:41;19.30;99.90
12504;DHT22;6316;48.118;-1.690;2023-09-12T04:24:08;19.30;99.90
12504;DHT22;6316;48.118;-1.690;2023-09-12T04:26:33;19.30;99.90
12504;DHT22;6316;48.118;-1.690;2023-09-12T04:28:59;19.30;99.90
12504;DHT22;6316;48.118;-1.690;2023-09-12T04:31:25;19.30;99.90
12504;DHT22;6316;48.118;-1.690;2023-09-12T04:33:54;19.30;99.90
12504;DHT22;6316;48.118;-1.690;2023-09-12T04:36:20;19.30;99.90
12504;DHT22;6316;48.118;-1.690;2023-09-12T04:38:46;19.20;99.90
12504;DHT22;6316;48.118;-1.690;2023-09-12T04:41:13;19.20;99.90
12504;DHT22;6316;48.118;-1.690;2023-09-12T04:43:42;19.20;99.90
12504;DHT22;6316;48.118;-1.690;2023-09-12T04:46:10;19.20;99.90
12504;DHT22;6316;48.118;-1.690;2023-09-12T04:48:35;19.20;99.90
12504;DHT22;6316;48.118;-1.690;2023-09-12T04:51:01;19.20;99.90
12504;DHT22;6316;48.118;-1.690;2023-09-12T04:53:27;19.20;99.90
12504;DHT22;6316;48.118;-1.690;2023-09-12T04:55:53;19.20;99.90
12504;DHT22;6316;48.118;-1.690;2023-09-12T04:58:19;19.20;99.90
12504;DHT22;6316;48.118;-1.690;2023-09-12T05:00:45;19.20;99.90
12504;DHT22;6316;48.118;-1.690;2023-09-12T05:03:11;19.10;99.90
12504;DHT22;6316;48.118;-1.690;2023-09-12T05:05:37;19.20;99.90
12504;DHT22;6316;48.118;-1.690;2023-09-12T05:08:03;19.20;99.90
12504;DHT22;6316;48.118;-1.690;2023-09-12T05:10:29;19.20;99.90
12504;DHT22;6316;48.118;-1.690;2023-09-12T05:12:55;19.20;99.90
12504;DHT22;6316;48.118;-1.690;2023-09-12T05:15:21;19.20;99.90
12504;DHT22;6316;48.118;-1.690;2023-09-12T05:17:46;19.20;99.90
12504;DHT22;6316;48.118;-1.690;2023-09-12T05:20:12;19.20;99.90
12504;DHT22;6316;48.118;-1.690;2023-09-12T05:22:38;19.20;99.90
12504;DHT22;6316;48.118;-1.690;2023-09-12T05:25:03;19.20;99.90
12504;DHT22;6316;48.118;-1.690;2023-09-12T05:27:29;19.20;99.90
12504;DHT22;6316;48.118;-1.690;2023-09-12T05:29:55;19.30;99.90
12504;DHT22;6316;48.118;-1.690;2023-09-12T05:32:20;19.30;99.90
12504;DHT22;6316;48.118;-1.690;2023-09-12T05:34:46;19.30;99.90
12504;DHT22;6316;48.118;-1.690;2023-09-12T05:37:15;19.30;99.90
12504;DHT22;6316;48.118;-1.690;2023-09-12T05:39:40;19.30;99.90
12504;DHT22;6316;48.118;-1.690;2023-09-12T05:42:07;19.30;99.90
12504;DHT22;6316;48.118;-1.690;2023-09-12T05:44:32;19.30;99.90
12504;DHT22;6316;48.118;-1.690;2023-09-12T05:46:58;19.30;99.90
12504;DHT22;6316;48.118;-1.690;2023-09-12T05:49:24;19.30;99.90
12504;DHT22;6316;48.118;-1.690;2023-09-12T05:51:49;19.30;99.90
12504;DHT22;6316;48.118;-1.690;2023-09-12T05:54:15;19.30;99.90
12504;DHT22;6316;48.118;-1.690;2023-09-12T05:56:41;19.20;99.90
12504;DHT22;6316;48.118;-1.690;2023-09-12T05:59:07;19.20;99.90
12504;DHT22;6316;48.118;-1.690;2023-09-12T06:01:32;19.20;99.90
12504;DHT22;6316;48.118;-1.690;2023-09-12T06:03:58;19.20;99.90
12504;DHT22;6316;48.118;-1.690;2023-09-12T06:06:24;19.20;99.90
12504;DHT22;6316;48.118;-1.690;2023-09-12T06:08:49;19.10;99.90
12504;DHT22;6316;48.118;-1.690;2023-09-12T06:11:15;19.10;99.90
12504;DHT22;6316;48.118;-1.690;2023-09-12T06:13:40;19.10;99.90
12504;DHT22;6316;48.118;-1.690;2023-09-12T06:16:06;19.10;99.90
12504;DHT22;6316;48.118;-1.690;2023-09-12T06:18:33;19.00;99.90
12504;DHT22;6316;48.118;-1.690;2023-09-12T06:21:00;19.00;99.90
12504;DHT22;6316;48.118;-1.690;2023-09-12T06:23:29;19.00;99.90
12504;DHT22;6316;48.118;-1.690;2023-09-12T06:25:55;19.00;99.90
12504;DHT22;6316;48.118;-1.690;2023-09-12T06:28:28;19.00;99.90
12504;DHT22;6316;48.118;-1.690;2023-09-12T06:30:55;19.00;99.90
12504;DHT22;6316;48.118;-1.690;2023-09-12T06:33:22;19.00;99.90
12504;DHT22;6316;48.118;-1.690;2023-09-12T06:35:51;19.10;99.90
12504;DHT22;6316;48.118;-1.690;2023-09-12T06:38:19;19.10;99.90
12504;DHT22;6316;48.118;-1.690;2023-09-12T06:40:45;19.10;99.90
12504;DHT22;6316;48.118;-1.690;2023-09-12T06:43:11;19.10;99.90
12504;DHT22;6316;48.118;-1.690;2023-09-12T06:45:37;19.20;99.90
12504;DHT22;6316;48.118;-1.690;2023-09-12T06:48:04;19.20;99.90
12504;DHT22;6316;48.118;-1.690;2023-09-12T06:50:30;19.20;99.90
12504;DHT22;6316;48.118;-1.690;2023-09-12T06:52:56;19.30;99.90
12504;DHT22;6316;48.118;-1.690;2023-09-12T06:55:21;19.30;99.90
12504;DHT22;6316;48.118;-1.690;2023-09-12T06:57:47;19.40;99.90
12504;DHT22;6316;48.118;-1.690;2023-09-12T07:00:13;19.50;99.90
12504;DHT22;6316;48.118;-1.690;2023-09-12T07:02:39;19.50;99.90
12504;DHT22;6316;48.118;-1.690;2023-09-12T07:05:05;19.50;99.90
12504;DHT22;6316;48.118;-1.690;2023-09-12T07:07:31;19.50;99.90
12504;DHT22;6316;48.118;-1.690;2023-09-12T07:09:57;19.50;99.90
12504;DHT22;6316;48.118;-1.690;2023-09-12T07:12:23;19.50;99.90
12504;DHT22;6316;48.118;-1.690;2023-09-12T07:14:49;19.50;99.90
12504;DHT22;6316;48.118;-1.690;2023-09-12T07:17:16;19.50;99.90
12504;DHT22;6316;48.118;-1.690;2023-09-12T07:19:43;19.60;99.90
12504;DHT22;6316;48.118;-1.690;2023-09-12T07:22:09;19.60;99.90
12504;DHT22;6316;48.118;-1.690;2023-09-12T07:24:34;19.60;99.90
12504;DHT22;6316;48.118;-1.690;2023-09-12T07:27:00;19.60;99.90
12504;DHT22;6316;48.118;-1.690;2023-09-12T07:29:26;19.60;99.90
12504;DHT22;6316;48.118;-1.690;2023-09-12T07:31:53;19.60;99.90
12504;DHT22;6316;48.118;-1.690;2023-09-12T07:34:20;19.60;99.90
12504;DHT22;6316;48.118;-1.690;2023-09-12T07:36:46;19.70;99.90
12504;DHT22;6316;48.118;-1.690;2023-09-12T07:39:12;19.70;99.90
12504;DHT22;6316;48.118;-1.690;2023-09-12T07:41:38;19.70;99.90
12504;DHT22;6316;48.118;-1.690;2023-09-12T07:44:04;19.80;99.90
12504;DHT22;6316;48.118;-1.690;2023-09-12T07:46:30;19.80;99.90
12504;DHT22;6316;48.118;-1.690;2023-09-12T07:48:56;19.80;99.90
12504;DHT22;6316;48.118;-1.690;2023-09-12T07:51:23;19.80;99.90
12504;DHT22;6316;48.118;-1.690;2023-09-12T07:53:49;19.80;99.90
12504;DHT22;6316;48.118;-1.690;2023-09-12T07:56:15;19.90;99.90
12504;DHT22;6316;48.118;-1.690;2023-09-12T07:58:41;20.00;99.90
12504;DHT22;6316;48.118;-1.690;2023-09-12T08:01:07;20.00;99.90
12504;DHT22;6316;48.118;-1.690;2023-09-12T08:03:37;20.00;99.90
12504;DHT22;6316;48.118;-1.690;2023-09-12T08:06:05;20.10;99.90
12504;DHT22;6316;48.118;-1.690;2023-09-12T08:08:31;20.20;99.90
12504;DHT22;6316;48.118;-1.690;2023-09-12T08:10:57;20.20;99.90
12504;DHT22;6316;48.118;-1.690;2023-09-12T08:13:26;20.30;99.90
12504;DHT22;6316;48.118;-1.690;2023-09-12T08:15:53;20.70;99.90
12504;DHT22;6316;48.118;-1.690;2023-09-12T08:18:19;21.20;99.90
12504;DHT22;6316;48.118;-1.690;2023-09-12T08:20:44;21.70;99.90
12504;DHT22;6316;48.118;-1.690;2023-09-12T08:23:10;22.20;99.90
12504;DHT22;6316;48.118;-1.690;2023-09-12T08:25:36;22.40;99.90
12504;DHT22;6316;48.118;-1.690;2023-09-12T08:28:01;22.30;99.90
12504;DHT22;6316;48.118;-1.690;2023-09-12T08:30:27;22.20;99.90
12504;DHT22;6316;48.118;-1.690;2023-09-12T08:32:56;22.00;99.90
12504;DHT22;6316;48.118;-1.690;2023-09-12T08:35:21;21.90;99.90
12504;DHT22;6316;48.118;-1.690;2023-09-12T08:37:47;21.80;99.90
12504;DHT22;6316;48.118;-1.690;2023-09-12T08:40:13;21.80;99.90
12504;DHT22;6316;48.118;-1.690;2023-09-12T08:42:43;21.80;99.90
12504;DHT22;6316;48.118;-1.690;2023-09-12T08:45:13;21.90;99.90
12504;DHT22;6316;48.118;-1.690;2023-09-12T08:47:41;22.00;99.90
12504;DHT22;6316;48.118;-1.690;2023-09-12T08:50:13;22.10;99.90
12504;DHT22;6316;48.118;-1.690;2023-09-12T08:52:46;22.20;99.90
12504;DHT22;6316;48.118;-1.690;2023-09-12T08:55:15;22.30;99.90
12504;DHT22;6316;48.118;-1.690;2023-09-12T08:57:43;22.40;99.90
12504;DHT22;6316;48.118;-1.690;2023-09-12T09:00:09;22.60;99.90
12504;DHT22;6316;48.118;-1.690;2023-09-12T09:02:38;22.70;99.90
12504;DHT22;6316;48.118;-1.690;2023-09-12T09:05:06;22.80;99.90
12504;DHT22;6316;48.118;-1.690;2023-09-12T09:07:33;22.80;99.90
12504;DHT22;6316;48.118;-1.690;2023-09-12T09:10:02;22.90;99.90
12504;DHT22;6316;48.118;-1.690;2023-09-12T09:12:28;22.90;99.90
12504;DHT22;6316;48.118;-1.690;2023-09-12T09:14:54;23.00;99.90
12504;DHT22;6316;48.118;-1.690;2023-09-12T09:17:20;23.10;99.90
12504;DHT22;6316;48.118;-1.690;2023-09-12T09:19:45;23.20;99.90
12504;DHT22;6316;48.118;-1.690;2023-09-12T09:22:11;23.20;99.90
12504;DHT22;6316;48.118;-1.690;2023-09-12T09:24:37;23.30;99.90
12504;DHT22;6316;48.118;-1.690;2023-09-12T09:27:03;23.30;99.90
12504;DHT22;6316;48.118;-1.690;2023-09-12T09:29:29;23.30;99.90
12504;DHT22;6316;48.118;-1.690;2023-09-12T09:31:59;23.30;99.90
12504;DHT22;6316;48.118;-1.690;2023-09-12T09:34:25;23.20;99.90
12504;DHT22;6316;48.118;-1.690;2023-09-12T09:36:55;23.20;99.90
12504;DHT22;6316;48.118;-1.690;2023-09-12T09:39:23;23.20;99.90
12504;DHT22;6316;48.118;-1.690;2023-09-12T09:41:50;23.20;99.90
12504;DHT22;6316;48.118;-1.690;2023-09-12T09:44:17;23.10;99.90
12504;DHT22;6316;48.118;-1.690;2023-09-12T09:46:43;23.10;99.90
12504;DHT22;6316;48.118;-1.690;2023-09-12T09:49:16;23.10;99.90
12504;DHT22;6316;48.118;-1.690;2023-09-12T09:51:44;23.10;99.90
12504;DHT22;6316;48.118;-1.690;2023-09-12T09:54:13;23.20;99.90
12504;DHT22;6316;48.118;-1.690;2023-09-12T09:57:08;23.20;99.90
12504;DHT22;6316;48.118;-1.690;2023-09-12T09:59:34;23.30;99.90
12504;DHT22;6316;48.118;-1.690;2023-09-12T10:02:00;23.20;99.90
12504;DHT22;6316;48.118;-1.690;2023-09-12T10:04:27;23.20;99.90
12504;DHT22;6316;48.118;-1.690;2023-09-12T10:06:56;23.30;99.90
12504;DHT22;6316;48.118;-1.690;2023-09-12T10:09:23;23.30;99.90
12504;DHT22;6316;48.118;-1.690;2023-09-12T10:11:52;23.30;99.90
12504;DHT22;6316;48.118;-1.690;2023-09-12T10:14:20;23.40;99.90
12504;DHT22;6316;48.118;-1.690;2023-09-12T10:16:47;23.50;99.90
12504;DHT22;6316;48.118;-1.690;2023-09-12T10:24:35;23.80;99.90
12504;DHT22;6316;48.118;-1.690;2023-09-12T10:27:02;23.90;99.90
12504;DHT22;6316;48.118;-1.690;2023-09-12T10:29:29;23.90;99.90
12504;DHT22;6316;48.118;-1.690;2023-09-12T10:31:55;24.00;99.90
12504;DHT22;6316;48.118;-1.690;2023-09-12T10:34:24;24.10;99.90
12504;DHT22;6316;48.118;-1.690;2023-09-12T10:36:50;24.20;99.90
12504;DHT22;6316;48.118;-1.690;2023-09-12T10:39:19;24.40;99.90
12504;DHT22;6316;48.118;-1.690;2023-09-12T10:41:46;24.60;99.90
12504;DHT22;6316;48.118;-1.690;2023-09-12T10:44:16;24.70;99.90
12504;DHT22;6316;48.118;-1.690;2023-09-12T10:46:44;24.80;99.90
12504;DHT22;6316;48.118;-1.690;2023-09-12T10:49:12;24.90;99.90
12504;DHT22;6316;48.118;-1.690;2023-09-12T10:51:46;25.00;99.90
12504;DHT22;6316;48.118;-1.690;2023-09-12T10:54:22;25.00;99.90
12504;DHT22;6316;48.118;-1.690;2023-09-12T10:57:04;25.20;99.90
12504;DHT22;6316;48.118;-1.690;2023-09-12T10:59:30;25.20;99.90
12504;DHT22;6316;48.118;-1.690;2023-09-12T11:02:27;25.30;99.90
12504;DHT22;6316;48.118;-1.690;2023-09-12T11:04:57;25.30;99.90
12504;DHT22;6316;48.118;-1.690;2023-09-12T11:12:54;25.20;99.90
12504;DHT22;6316;48.118;-1.690;2023-09-12T11:15:22;25.00;99.90
12504;DHT22;6316;48.118;-1.690;2023-09-12T11:17:49;24.90;99.90
12504;DHT22;6316;48.118;-1.690;2023-09-12T11:20:16;24.90;99.90
12504;DHT22;6316;48.118;-1.690;2023-09-12T11:22:44;24.90;99.90
12504;DHT22;6316;48.118;-1.690;2023-09-12T11:25:21;25.00;99.90
12504;DHT22;6316;48.118;-1.690;2023-09-12T11:30:23;25.10;99.90
12504;DHT22;6316;48.118;-1.690;2023-09-12T11:32:51;25.10;99.90
12504;DHT22;6316;48.118;-1.690;2023-09-12T11:35:25;25.00;99.90
12504;DHT22;6316;48.118;-1.690;2023-09-12T11:37:59;25.00;99.90
12504;DHT22;6316;48.118;-1.690;2023-09-12T11:40:25;24.90;99.90
12504;DHT22;6316;48.118;-1.690;2023-09-12T11:42:52;24.90;99.90
12504;DHT22;6316;48.118;-1.690;2023-09-12T11:45:19;24.90;99.90
12504;DHT22;6316;48.118;-1.690;2023-09-12T11:47:46;24.90;99.90
12504;DHT22;6316;48.118;-1.690;2023-09-12T11:50:34;24.90;99.90
12504;DHT22;6316;48.118;-1.690;2023-09-12T11:53:06;24.90;99.90
12504;DHT22;6316;48.118;-1.690;2023-09-12T11:55:59;25.00;99.90
12504;DHT22;6316;48.118;-1.690;2023-09-12T11:58:26;25.00;99.90
12504;DHT22;6316;48.118;-1.690;2023-09-12T12:00:56;25.00;99.90
12504;DHT22;6316;48.118;-1.690;2023-09-12T12:03:24;25.10;99.90
12504;DHT22;6316;48.118;-1.690;2023-09-12T12:05:50;25.10;99.90
12504;DHT22;6316;48.118;-1.690;2023-09-12T12:08:17;25.20;99.90
12504;DHT22;6316;48.118;-1.690;2023-09-12T12:10:43;25.30;99.90
12504;DHT22;6316;48.118;-1.690;2023-09-12T12:13:16;25.40;99.90
12504;DHT22;6316;48.118;-1.690;2023-09-12T12:15:42;25.40;99.90
12504;DHT22;6316;48.118;-1.690;2023-09-12T12:18:08;25.40;99.90
12504;DHT22;6316;48.118;-1.690;2023-09-12T12:20:34;25.50;99.90
12504;DHT22;6316;48.118;-1.690;2023-09-12T12:22:59;25.60;99.90
12504;DHT22;6316;48.118;-1.690;2023-09-12T12:25:25;25.60;99.90
12504;DHT22;6316;48.118;-1.690;2023-09-12T12:27:51;25.60;99.90
12504;DHT22;6316;48.118;-1.690;2023-09-12T12:30:18;25.70;99.90
12504;DHT22;6316;48.118;-1.690;2023-09-12T12:32:46;25.80;99.90
12504;DHT22;6316;48.118;-1.690;2023-09-12T12:35:20;25.70;99.90
12504;DHT22;6316;48.118;-1.690;2023-09-12T12:37:48;25.60;99.90
12504;DHT22;6316;48.118;-1.690;2023-09-12T12:40:15;25.50;99.90
12504;DHT22;6316;48.118;-1.690;2023-09-12T12:42:43;25.50;99.90
12504;DHT22;6316;48.118;-1.690;2023-09-12T12:45:13;25.50;99.90
12504;DHT22;6316;48.118;-1.690;2023-09-12T12:47:40;25.50;99.90
12504;DHT22;6316;48.118;-1.690;2023-09-12T12:50:13;25.60;99.90
12504;DHT22;6316;48.118;-1.690;2023-09-12T12:52:40;25.60;99.90
12504;DHT22;6316;48.118;-1.690;2023-09-12T12:55:10;25.70;99.90
12504;DHT22;6316;48.118;-1.690;2023-09-12T12:57:40;25.60;99.90
12504;DHT22;6316;48.118;-1.690;2023-09-12T13:00:11;25.80;99.90
12504;DHT22;6316;48.118;-1.690;2023-09-12T13:02:40;25.90;99.90
12504;DHT22;6316;48.118;-1.690;2023-09-12T13:05:29;25.90;99.90
12504;DHT22;6316;48.118;-1.690;2023-09-12T13:07:56;25.90;99.90
12504;DHT22;6316;48.118;-1.690;2023-09-12T13:10:22;25.90;99.90
12504;DHT22;6316;48.118;-1.690;2023-09-12T13:12:49;25.90;99.90
12504;DHT22;6316;48.118;-1.690;2023-09-12T13:15:15;26.00;99.90
12504;DHT22;6316;48.118;-1.690;2023-09-12T13:17:42;26.00;99.90
12504;DHT22;6316;48.118;-1.690;2023-09-12T13:20:08;26.00;99.90
12504;DHT22;6316;48.118;-1.690;2023-09-12T13:22:35;26.00;99.90
12504;DHT22;6316;48.118;-1.690;2023-09-12T13:25:01;25.90;99.90
12504;DHT22;6316;48.118;-1.690;2023-09-12T13:27:28;25.90;99.90
12504;DHT22;6316;48.118;-1.690;2023-09-12T13:29:53;25.90;99.90
12504;DHT22;6316;48.118;-1.690;2023-09-12T13:32:19;25.90;99.90
12504;DHT22;6316;48.118;-1.690;2023-09-12T13:34:45;25.90;99.90
12504;DHT22;6316;48.118;-1.690;2023-09-12T13:37:11;25.90;99.90
12504;DHT22;6316;48.118;-1.690;2023-09-12T13:39:36;25.90;99.90
12504;DHT22;6316;48.118;-1.690;2023-09-12T13:42:02;25.90;99.90
12504;DHT22;6316;48.118;-1.690;2023-09-12T13:44:30;25.90;99.90
12504;DHT22;6316;48.118;-1.690;2023-09-12T13:46:55;25.90;99.90
12504;DHT22;6316;48.118;-1.690;2023-09-12T13:49:21;25.90;99.90
12504;DHT22;6316;48.118;-1.690;2023-09-12T13:51:47;25.90;99.90
12504;DHT22;6316;48.118;-1.690;2023-09-12T13:54:12;25.90;99.90
12504;DHT22;6316;48.118;-1.690;2023-09-12T13:56:44;26.00;99.90
12504;DHT22;6316;48.118;-1.690;2023-09-12T13:59:09;26.00;99.90
12504;DHT22;6316;48.118;-1.690;2023-09-12T14:01:35;26.10;99.90
12504;DHT22;6316;48.118;-1.690;2023-09-12T14:04:02;26.10;99.90
12504;DHT22;6316;48.118;-1.690;2023-09-12T14:06:28;26.20;99.90
12504;DHT22;6316;48.118;-1.690;2023-09-12T14:08:53;26.20;99.90
12504;DHT22;6316;48.118;-1.690;2023-09-12T14:11:19;26.20;99.90
12504;DHT22;6316;48.118;-1.690;2023-09-12T14:13:45;26.20;99.90
12504;DHT22;6316;48.118;-1.690;2023-09-12T14:16:10;26.30;99.90
12504;DHT22;6316;48.118;-1.690;2023-09-12T14:18:36;26.40;99.90
12504;DHT22;6316;48.118;-1.690;2023-09-12T14:21:02;26.40;99.90
12504;DHT22;6316;48.118;-1.690;2023-09-12T14:23:28;26.40;99.90
12504;DHT22;6316;48.118;-1.690;2023-09-12T14:25:54;26.30;99.90
12504;DHT22;6316;48.118;-1.690;2023-09-12T14:28:20;26.20;99.90
12504;DHT22;6316;48.118;-1.690;2023-09-12T14:30:46;26.20;99.90
12504;DHT22;6316;48.118;-1.690;2023-09-12T14:33:12;26.20;99.90
12504;DHT22;6316;48.118;-1.690;2023-09-12T14:35:38;26.20;99.90
12504;DHT22;6316;48.118;-1.690;2023-09-12T14:38:03;26.10;99.90
12504;DHT22;6316;48.118;-1.690;2023-09-12T14:40:30;26.10;99.90
12504;DHT22;6316;48.118;-1.690;2023-09-12T14:42:56;26.00;99.90
12504;DHT22;6316;48.118;-1.690;2023-09-12T14:45:22;25.90;99.90
12504;DHT22;6316;48.118;-1.690;2023-09-12T14:47:49;25.90;99.90
12504;DHT22;6316;48.118;-1.690;2023-09-12T14:50:14;25.80;99.90
12504;DHT22;6316;48.118;-1.690;2023-09-12T14:52:40;25.70;99.90
12504;DHT22;6316;48.118;-1.690;2023-09-12T14:55:07;25.60;99.90
12504;DHT22;6316;48.118;-1.690;2023-09-12T14:57:34;25.60;99.90
12504;DHT22;6316;48.118;-1.690;2023-09-12T15:00:00;25.60;99.90
12504;DHT22;6316;48.118;-1.690;2023-09-12T15:02:26;25.60;99.90
12504;DHT22;6316;48.118;-1.690;2023-09-12T15:04:57;25.60;99.90
12504;DHT22;6316;48.118;-1.690;2023-09-12T15:07:23;25.60;99.90
12504;DHT22;6316;48.118;-1.690;2023-09-12T15:09:50;25.50;99.90
12504;DHT22;6316;48.118;-1.690;2023-09-12T15:12:15;25.50;99.90
12504;DHT22;6316;48.118;-1.690;2023-09-12T15:14:41;25.60;99.90
12504;DHT22;6316;48.118;-1.690;2023-09-12T15:17:07;25.60;99.90
12504;DHT22;6316;48.118;-1.690;2023-09-12T15:19:33;25.70;99.90
12504;DHT22;6316;48.118;-1.690;2023-09-12T15:21:58;25.70;99.90
12504;DHT22;6316;48.118;-1.690;2023-09-12T15:24:24;25.70;99.90
12504;DHT22;6316;48.118;-1.690;2023-09-12T15:26:49;25.70;99.90
12504;DHT22;6316;48.118;-1.690;2023-09-12T15:29:15;25.60;99.90
12504;DHT22;6316;48.118;-1.690;2023-09-12T15:31:41;25.60;99.90
12504;DHT22;6316;48.118;-1.690;2023-09-12T15:34:06;25.60;99.90
12504;DHT22;6316;48.118;-1.690;2023-09-12T15:36:47;25.60;99.90
12504;DHT22;6316;48.118;-1.690;2023-09-12T15:39:14;25.60;99.90
12504;DHT22;6316;48.118;-1.690;2023-09-12T15:41:39;25.60;99.90
12504;DHT22;6316;48.118;-1.690;2023-09-12T15:44:06;25.60;99.90
12504;DHT22;6316;48.118;-1.690;2023-09-12T15:46:32;25.60;99.90
12504;DHT22;6316;48.118;-1.690;2023-09-12T15:48:58;25.60;99.90